sensor_id;sensor_type;location;lat;lon;timestamp;P1;durP1;ratioP1;P2;durP2;ratioP2
43883;SDS011;71973;52.018;5.810;2024-02-21T00:00:49;8.93;;;3.60;;
43883;SDS011;71973;52.018;5.810;2024-02-21T00:03:15;7.07;;;3.97;;
43883;SDS011;71973;52.018;5.810;2024-02-21T00:05:40;8.17;;;3.70;;
43883;SDS011;71973;52.018;5.810;2024-02-21T00:08:06;9.13;;;4.23;;
43883;SDS011;71973;52.018;5.810;2024-02-21T00:10:32;8.87;;;3.87;;
43883;SDS011;71973;52.018;5.810;2024-02-21T00:12:58;7.35;;;3.85;;
43883;SDS011;71973;52.018;5.810;2024-02-21T00:15:26;7.25;;;3.30;;
43883;SDS011;71973;52.018;5.810;2024-02-21T00:17:52;5.97;;;3.92;;
43883;SDS011;71973;52.018;5.810;2024-02-21T00:20:18;8.73;;;3.72;;
43883;SDS011;71973;52.018;5.810;2024-02-21T00:22:45;6.82;;;3.50;;
43883;SDS011;71973;52.018;5.810;2024-02-21T00:25:10;6.10;;;3.23;;
43883;SDS011;71973;52.018;5.810;2024-02-21T00:27:36;8.23;;;3.80;;
43883;SDS011;71973;52.018;5.810;2024-02-21T00:30:02;8.60;;;3.40;;
43883;SDS011;71973;52.018;5.810;2024-02-21T00:32:28;8.15;;;3.60;;
43883;SDS011;71973;52.018;5.810;2024-02-21T00:34:53;8.53;;;3.93;;
43883;SDS011;71973;52.018;5.810;2024-02-21T00:37:19;5.57;;;3.30;;
43883;SDS011;71973;52.018;5.810;2024-02-21T00:39:45;7.65;;;3.20;;
43883;SDS011;71973;52.018;5.810;2024-02-21T00:42:10;7.87;;;3.47;;
43883;SDS011;71973;52.018;5.810;2024-02-21T00:44:36;5.43;;;2.93;;
43883;SDS011;71973;52.018;5.810;2024-02-21T00:47:01;4.33;;;2.73;;
43883;SDS011;71973;52.018;5.810;2024-02-21T00:49:27;6.40;;;3.67;;
43883;SDS011;71973;52.018;5.810;2024-02-21T00:51:53;7.20;;;2.87;;
43883;SDS011;71973;52.018;5.810;2024-02-21T00:54:18;4.60;;;2.57;;
43883;SDS011;71973;52.018;5.810;2024-02-21T00:56:44;5.23;;;2.93;;
43883;SDS011;71973;52.018;5.810;2024-02-21T00:59:09;7.03;;;3.07;;
43883;SDS011;71973;52.018;5.810;2024-02-21T01:01:35;9.77;;;3.73;;
43883;SDS011;71973;52.018;5.810;2024-02-21T01:04:00;6.70;;;2.90;;
43883;SDS011;71973;52.018;5.810;2024-02-21T01:06:26;7.13;;;3.33;;
43883;SDS011;71973;52.018;5.810;2024-02-21T01:08:51;6.37;;;2.93;;
43883;SDS011;71973;52.018;5.810;2024-02-21T01:11:17;6.13;;;2.90;;
43883;SDS011;71973;52.018;5.810;2024-02-21T01:13:43;5.72;;;3.20;;
43883;SDS011;71973;52.018;5.810;2024-02-21T01:16:09;5.60;;;2.95;;
43883;SDS011;71973;52.018;5.810;2024-02-21T01:18:37;4.85;;;2.78;;
43883;SDS011;71973;52.018;5.810;2024-02-21T01:21:04;4.97;;;2.80;;
43883;SDS011;71973;52.018;5.810;2024-02-21T01:23:32;5.32;;;2.60;;
43883;SDS011;71973;52.018;5.810;2024-02-21T01:25:58;6.97;;;2.83;;
43883;SDS011;71973;52.018;5.810;2024-02-21T01:28:24;4.93;;;2.87;;
43883;SDS011;71973;52.018;5.810;2024-02-21T01:30:50;5.83;;;2.70;;
43883;SDS011;71973;52.018;5.810;2024-02-21T01:33:15;5.17;;;2.97;;
43883;SDS011;71973;52.018;5.810;2024-02-21T01:35:41;5.10;;;2.43;;
43883;SDS011;71973;52.018;5.810;2024-02-21T01:38:06;7.30;;;3.13;;
43883;SDS011;71973;52.018;5.810;2024-02-21T01:40:32;4.23;;;2.23;;
43883;SDS011;71973;52.018;5.810;2024-02-21T01:42:57;6.10;;;3.17;;
43883;SDS011;71973;52.018;5.810;2024-02-21T01:45:23;5.87;;;2.90;;
43883;SDS011;71973;52.018;5.810;2024-02-21T01:47:48;5.13;;;2.37;;
43883;SDS011;71973;52.018;5.810;2024-02-21T01:50:15;5.38;;;2.22;;
43883;SDS011;71973;52.018;5.810;2024-02-21T01:52:41;7.30;;;2.45;;
43883;SDS011;71973;52.018;5.810;2024-02-21T01:55:09;7.03;;;2.70;;
43883;SDS011;71973;52.018;5.810;2024-02-21T01:57:36;8.05;;;2.90;;
43883;SDS011;71973;52.018;5.810;2024-02-21T02:00:02;4.57;;;2.20;;
43883;SDS011;71973;52.018;5.810;2024-02-21T02:02:28;4.85;;;2.38;;
43883;SDS011;71973;52.018;5.810;2024-02-21T02:04:54;6.00;;;2.67;;
43883;SDS011;71973;52.018;5.810;2024-02-21T02:07:21;6.18;;;2.72;;
43883;SDS011;71973;52.018;5.810;2024-02-21T02:09:46;5.57;;;2.47;;
43883;SDS011;71973;52.018;5.810;2024-02-21T02:12:12;3.47;;;2.00;;
43883;SDS011;71973;52.018;5.810;2024-02-21T02:14:37;2.80;;;1.80;;
43883;SDS011;71973;52.018;5.810;2024-02-21T02:17:03;3.77;;;2.33;;
43883;SDS011;71973;52.018;5.810;2024-02-21T02:19:29;4.20;;;1.87;;
43883;SDS011;71973;52.018;5.810;2024-02-21T02:21:56;5.20;;;2.20;;
43883;SDS011;71973;52.018;5.810;2024-02-21T02:24:30;4.38;;;2.08;;
43883;SDS011;71973;52.018;5.810;2024-02-21T02:26:56;5.30;;;2.43;;
43883;SDS011;71973;52.018;5.810;2024-02-21T02:29:21;3.63;;;2.10;;
43883;SDS011;71973;52.018;5.810;2024-02-21T02:31:47;4.30;;;2.13;;
43883;SDS011;71973;52.018;5.810;2024-02-21T02:34:14;4.55;;;2.20;;
43883;SDS011;71973;52.018;5.810;2024-02-21T02:36:39;6.90;;;2.23;;
43883;SDS011;71973;52.018;5.810;2024-02-21T02:39:05;3.73;;;1.80;;
43883;SDS011;71973;52.018;5.810;2024-02-21T02:44:03;4.28;;;1.98;;
43883;SDS011;71973;52.018;5.810;2024-02-21T02:46:28;4.97;;;1.97;;
43883;SDS011;71973;52.018;5.810;2024-02-21T02:48:54;5.13;;;2.60;;
43883;SDS011;71973;52.018;5.810;2024-02-21T02:51:20;5.90;;;2.33;;
43883;SDS011;71973;52.018;5.810;2024-02-21T02:53:45;4.03;;;2.30;;
43883;SDS011;71973;52.018;5.810;2024-02-21T02:56:17;4.70;;;1.90;;
43883;SDS011;71973;52.018;5.810;2024-02-21T02:58:43;4.88;;;1.80;;
43883;SDS011;71973;52.018;5.810;2024-02-21T03:01:09;5.78;;;1.92;;
43883;SDS011;71973;52.018;5.810;2024-02-21T03:03:34;3.37;;;1.80;;
43883;SDS011;71973;52.018;5.810;2024-02-21T03:06:00;4.15;;;2.00;;
43883;SDS011;71973;52.018;5.810;2024-02-21T03:08:26;4.23;;;2.00;;
43883;SDS011;71973;52.018;5.810;2024-02-21T03:10:52;4.93;;;1.90;;
43883;SDS011;71973;52.018;5.810;2024-02-21T03:13:17;5.47;;;2.13;;
43883;SDS011;71973;52.018;5.810;2024-02-21T03:15:43;4.57;;;1.83;;
43883;SDS011;71973;52.018;5.810;2024-02-21T03:18:08;4.23;;;2.00;;
43883;SDS011;71973;52.018;5.810;2024-02-21T03:20:34;4.13;;;1.83;;
43883;SDS011;71973;52.018;5.810;2024-02-21T03:22:59;6.27;;;2.03;;
43883;SDS011;71973;52.018;5.810;2024-02-21T03:25:25;5.43;;;2.10;;
43883;SDS011;71973;52.018;5.810;2024-02-21T03:27:50;4.83;;;2.20;;
43883;SDS011;71973;52.018;5.810;2024-02-21T03:30:16;4.30;;;1.67;;
43883;SDS011;71973;52.018;5.810;2024-02-21T03:32:42;6.10;;;2.43;;
43883;SDS011;71973;52.018;5.810;2024-02-21T03:35:08;4.37;;;2.00;;
43883;SDS011;71973;52.018;5.810;2024-02-21T03:37:33;4.70;;;2.13;;
43883;SDS011;71973;52.018;5.810;2024-02-21T03:39:59;3.22;;;1.60;;
43883;SDS011;71973;52.018;5.810;2024-02-21T03:42:25;4.97;;;1.63;;
43883;SDS011;71973;52.018;5.810;2024-02-21T03:44:50;4.07;;;1.90;;
43883;SDS011;71973;52.018;5.810;2024-02-21T03:47:16;6.63;;;2.90;;
43883;SDS011;71973;52.018;5.810;2024-02-21T03:49:41;5.33;;;1.90;;
43883;SDS011;71973;52.018;5.810;2024-02-21T03:52:07;5.17;;;1.80;;
43883;SDS011;71973;52.018;5.810;2024-02-21T03:56:59;2.85;;;1.63;;
43883;SDS011;71973;52.018;5.810;2024-02-21T03:59:25;3.63;;;1.80;;
43883;SDS011;71973;52.018;5.810;2024-02-21T04:01:53;4.13;;;1.70;;
43883;SDS011;71973;52.018;5.810;2024-02-21T04:04:19;5.28;;;2.10;;
43883;SDS011;71973;52.018;5.810;2024-02-21T04:06:46;4.15;;;1.77;;
43883;SDS011;71973;52.018;5.810;2024-02-21T04:09:12;3.35;;;1.77;;
43883;SDS011;71973;52.018;5.810;2024-02-21T04:11:38;5.20;;;2.20;;
43883;SDS011;71973;52.018;5.810;2024-02-21T04:14:03;4.27;;;1.80;;
43883;SDS011;71973;52.018;5.810;2024-02-21T04:16:29;6.23;;;2.23;;
43883;SDS011;71973;52.018;5.810;2024-02-21T04:18:54;4.57;;;2.10;;
43883;SDS011;71973;52.018;5.810;2024-02-21T04:21:20;4.63;;;1.90;;
43883;SDS011;71973;52.018;5.810;2024-02-21T04:23:45;5.30;;;2.07;;
43883;SDS011;71973;52.018;5.810;2024-02-21T04:26:11;5.83;;;2.00;;
43883;SDS011;71973;52.018;5.810;2024-02-21T04:28:36;6.13;;;2.10;;
43883;SDS011;71973;52.018;5.810;2024-02-21T04:31:03;6.90;;;2.38;;
43883;SDS011;71973;52.018;5.810;2024-02-21T04:33:28;4.23;;;1.93;;
43883;SDS011;71973;52.018;5.810;2024-02-21T04:35:54;3.63;;;1.90;;
43883;SDS011;71973;52.018;5.810;2024-02-21T04:38:20;6.90;;;2.40;;
43883;SDS011;71973;52.018;5.810;2024-02-21T04:40:46;4.38;;;2.00;;
43883;SDS011;71973;52.018;5.810;2024-02-21T04:43:11;5.07;;;1.70;;
43883;SDS011;71973;52.018;5.810;2024-02-21T04:45:37;6.27;;;2.30;;
43883;SDS011;71973;52.018;5.810;2024-02-21T04:48:03;5.10;;;2.20;;
43883;SDS011;71973;52.018;5.810;2024-02-21T04:50:28;4.40;;;1.77;;
43883;SDS011;71973;52.018;5.810;2024-02-21T04:52:54;5.23;;;1.70;;
43883;SDS011;71973;52.018;5.810;2024-02-21T04:55:19;5.27;;;2.23;;
43883;SDS011;71973;52.018;5.810;2024-02-21T04:57:45;3.37;;;2.00;;
43883;SDS011;71973;52.018;5.810;2024-02-21T05:00:11;5.70;;;2.13;;
43883;SDS011;71973;52.018;5.810;2024-02-21T05:02:36;3.90;;;2.00;;
43883;SDS011;71973;52.018;5.810;2024-02-21T05:05:02;3.57;;;1.80;;
43883;SDS011;71973;52.018;5.810;2024-02-21T05:07:28;3.57;;;1.70;;
43883;SDS011;71973;52.018;5.810;2024-02-21T05:09:53;6.77;;;1.90;;
43883;SDS011;71973;52.018;5.810;2024-02-21T05:12:19;4.90;;;2.00;;
43883;SDS011;71973;52.018;5.810;2024-02-21T05:14:45;4.85;;;1.90;;
43883;SDS011;71973;52.018;5.810;2024-02-21T05:17:10;5.00;;;1.80;;
43883;SDS011;71973;52.018;5.810;2024-02-21T05:19:36;7.63;;;2.47;;
43883;SDS011;71973;52.018;5.810;2024-02-21T05:22:01;7.17;;;2.13;;
43883;SDS011;71973;52.018;5.810;2024-02-21T05:24:27;4.60;;;1.90;;
43883;SDS011;71973;52.018;5.810;2024-02-21T05:26:54;3.70;;;1.80;;
43883;SDS011;71973;52.018;5.810;2024-02-21T05:29:20;5.13;;;2.20;;
43883;SDS011;71973;52.018;5.810;2024-02-21T05:34:18;5.47;;;1.90;;
43883;SDS011;71973;52.018;5.810;2024-02-21T05:36:44;3.28;;;1.80;;
43883;SDS011;71973;52.018;5.810;2024-02-21T05:39:09;3.87;;;1.60;;
43883;SDS011;71973;52.018;5.810;2024-02-21T05:41:35;3.50;;;1.67;;
43883;SDS011;71973;52.018;5.810;2024-02-21T05:44:01;4.30;;;2.20;;
43883;SDS011;71973;52.018;5.810;2024-02-21T05:46:27;4.40;;;1.67;;
43883;SDS011;71973;52.018;5.810;2024-02-21T05:48:52;3.95;;;1.55;;
43883;SDS011;71973;52.018;5.810;2024-02-21T05:51:18;6.50;;;1.70;;
43883;SDS011;71973;52.018;5.810;2024-02-21T05:53:43;5.53;;;1.67;;
43883;SDS011;71973;52.018;5.810;2024-02-21T05:56:12;5.80;;;1.97;;
43883;SDS011;71973;52.018;5.810;2024-02-21T05:58:39;4.63;;;2.10;;
43883;SDS011;71973;52.018;5.810;2024-02-21T06:01:05;5.55;;;2.03;;
43883;SDS011;71973;52.018;5.810;2024-02-21T06:03:32;3.55;;;1.50;;
43883;SDS011;71973;52.018;5.810;2024-02-21T06:05:58;3.75;;;1.88;;
43883;SDS011;71973;52.018;5.810;2024-02-21T06:08:26;3.55;;;1.67;;
43883;SDS011;71973;52.018;5.810;2024-02-21T06:10:52;5.47;;;2.00;;
43883;SDS011;71973;52.018;5.810;2024-02-21T06:13:21;4.88;;;1.80;;
43883;SDS011;71973;52.018;5.810;2024-02-21T06:15:47;3.38;;;1.70;;
43883;SDS011;71973;52.018;5.810;2024-02-21T06:18:14;4.90;;;1.95;;
43883;SDS011;71973;52.018;5.810;2024-02-21T06:20:39;4.23;;;2.40;;
43883;SDS011;71973;52.018;5.810;2024-02-21T06:23:06;4.75;;;1.75;;
43883;SDS011;71973;52.018;5.810;2024-02-21T06:25:31;4.85;;;2.03;;
43883;SDS011;71973;52.018;5.810;2024-02-21T06:27:57;4.10;;;1.80;;
43883;SDS011;71973;52.018;5.810;2024-02-21T06:30:23;4.40;;;1.77;;
43883;SDS011;71973;52.018;5.810;2024-02-21T06:32:48;4.60;;;1.80;;
43883;SDS011;71973;52.018;5.810;2024-02-21T06:35:14;4.43;;;1.63;;
43883;SDS011;71973;52.018;5.810;2024-02-21T06:37:39;4.40;;;1.80;;
43883;SDS011;71973;52.018;5.810;2024-02-21T06:40:05;3.70;;;1.87;;
43883;SDS011;71973;52.018;5.810;2024-02-21T06:42:31;3.20;;;1.65;;
43883;SDS011;71973;52.018;5.810;2024-02-21T06:44:57;6.17;;;2.00;;
43883;SDS011;71973;52.018;5.810;2024-02-21T06:47:22;4.33;;;1.77;;
43883;SDS011;71973;52.018;5.810;2024-02-21T06:49:48;4.53;;;1.97;;
43883;SDS011;71973;52.018;5.810;2024-02-21T06:52:17;4.97;;;1.83;;
43883;SDS011;71973;52.018;5.810;2024-02-21T06:54:45;6.80;;;1.73;;
43883;SDS011;71973;52.018;5.810;2024-02-21T06:57:12;5.35;;;2.10;;
43883;SDS011;71973;52.018;5.810;2024-02-21T06:59:38;5.25;;;1.77;;
43883;SDS011;71973;52.018;5.810;2024-02-21T07:02:03;6.00;;;1.70;;
43883;SDS011;71973;52.018;5.810;2024-02-21T07:04:29;6.83;;;2.40;;
43883;SDS011;71973;52.018;5.810;2024-02-21T07:06:54;5.57;;;1.93;;
43883;SDS011;71973;52.018;5.810;2024-02-21T07:09:20;4.80;;;1.80;;
43883;SDS011;71973;52.018;5.810;2024-02-21T07:11:45;5.07;;;1.90;;
43883;SDS011;71973;52.018;5.810;2024-02-21T07:14:11;3.87;;;1.60;;
43883;SDS011;71973;52.018;5.810;2024-02-21T07:16:36;5.87;;;2.07;;
43883;SDS011;71973;52.018;5.810;2024-02-21T07:19:02;6.90;;;1.60;;
43883;SDS011;71973;52.018;5.810;2024-02-21T07:21:28;4.03;;;1.70;;
43883;SDS011;71973;52.018;5.810;2024-02-21T07:23:53;3.47;;;1.87;;
43883;SDS011;71973;52.018;5.810;2024-02-21T07:26:19;5.70;;;1.57;;
43883;SDS011;71973;52.018;5.810;2024-02-21T07:28:44;3.60;;;1.93;;
43883;SDS011;71973;52.018;5.810;2024-02-21T07:33:36;3.22;;;1.58;;
43883;SDS011;71973;52.018;5.810;2024-02-21T07:36:05;4.20;;;1.53;;
43883;SDS011;71973;52.018;5.810;2024-02-21T07:38:32;5.43;;;1.80;;
43883;SDS011;71973;52.018;5.810;2024-02-21T07:40:57;3.87;;;1.90;;
43883;SDS011;71973;52.018;5.810;2024-02-21T07:43:23;7.13;;;2.17;;
43883;SDS011;71973;52.018;5.810;2024-02-21T07:45:48;6.10;;;1.93;;
43883;SDS011;71973;52.018;5.810;2024-02-21T07:48:14;3.37;;;1.67;;
43883;SDS011;71973;52.018;5.810;2024-02-21T07:50:40;4.37;;;1.80;;
43883;SDS011;71973;52.018;5.810;2024-02-21T07:53:05;7.53;;;2.00;;
43883;SDS011;71973;52.018;5.810;2024-02-21T07:55:31;5.17;;;2.13;;
43883;SDS011;71973;52.018;5.810;2024-02-21T07:57:56;4.60;;;2.13;;
43883;SDS011;71973;52.018;5.810;2024-02-21T08:00:22;6.67;;;2.23;;
43883;SDS011;71973;52.018;5.810;2024-02-21T08:02:48;4.33;;;1.90;;
43883;SDS011;71973;52.018;5.810;2024-02-21T08:05:14;5.10;;;1.90;;
43883;SDS011;71973;52.018;5.810;2024-02-21T08:07:39;5.00;;;2.00;;
43883;SDS011;71973;52.018;5.810;2024-02-21T08:10:05;4.40;;;2.05;;
43883;SDS011;71973;52.018;5.810;2024-02-21T08:12:34;3.00;;;1.70;;
43883;SDS011;71973;52.018;5.810;2024-02-21T08:15:00;5.43;;;2.20;;
43883;SDS011;71973;52.018;5.810;2024-02-21T08:17:28;3.67;;;1.67;;
43883;SDS011;71973;52.018;5.810;2024-02-21T08:19:54;3.87;;;1.63;;
43883;SDS011;71973;52.018;5.810;2024-02-21T08:22:19;5.17;;;2.77;;
43883;SDS011;71973;52.018;5.810;2024-02-21T08:24:45;3.90;;;1.93;;
43883;SDS011;71973;52.018;5.810;2024-02-21T08:27:11;7.07;;;2.17;;
43883;SDS011;71973;52.018;5.810;2024-02-21T08:29:36;4.60;;;1.83;;
43883;SDS011;71973;52.018;5.810;2024-02-21T08:32:02;4.07;;;1.97;;
43883;SDS011;71973;52.018;5.810;2024-02-21T08:34:28;4.03;;;1.80;;
43883;SDS011;71973;52.018;5.810;2024-02-21T08:36:55;4.10;;;1.77;;
43883;SDS011;71973;52.018;5.810;2024-02-21T08:39:21;5.53;;;1.97;;
43883;SDS011;71973;52.018;5.810;2024-02-21T08:41:46;4.03;;;1.97;;
43883;SDS011;71973;52.018;5.810;2024-02-21T08:44:12;4.40;;;2.30;;
43883;SDS011;71973;52.018;5.810;2024-02-21T08:46:37;7.03;;;2.13;;
43883;SDS011;71973;52.018;5.810;2024-02-21T08:49:05;5.78;;;2.42;;
43883;SDS011;71973;52.018;5.810;2024-02-21T08:51:31;2.80;;;1.80;;
43883;SDS011;71973;52.018;5.810;2024-02-21T08:53:57;4.10;;;1.80;;
43883;SDS011;71973;52.018;5.810;2024-02-21T08:56:23;3.75;;;1.60;;
43883;SDS011;71973;52.018;5.810;2024-02-21T08:58:49;3.97;;;2.03;;
43883;SDS011;71973;52.018;5.810;2024-02-21T09:01:15;3.53;;;1.90;;
43883;SDS011;71973;52.018;5.810;2024-02-21T09:03:40;4.33;;;1.90;;
43883;SDS011;71973;52.018;5.810;2024-02-21T09:06:06;5.63;;;2.40;;
43883;SDS011;71973;52.018;5.810;2024-02-21T09:08:33;5.18;;;2.10;;
43883;SDS011;71973;52.018;5.810;2024-02-21T09:11:02;6.18;;;2.05;;
43883;SDS011;71973;52.018;5.810;2024-02-21T09:13:28;5.20;;;2.10;;
43883;SDS011;71973;52.018;5.810;2024-02-21T09:15:53;4.63;;;2.00;;
43883;SDS011;71973;52.018;5.810;2024-02-21T09:18:19;5.97;;;2.37;;
43883;SDS011;71973;52.018;5.810;2024-02-21T09:20:45;6.17;;;2.30;;
43883;SDS011;71973;52.018;5.810;2024-02-21T09:23:10;4.67;;;1.80;;
43883;SDS011;71973;52.018;5.810;2024-02-21T09:25:37;4.78;;;1.60;;
43883;SDS011;71973;52.018;5.810;2024-02-21T09:28:02;3.63;;;1.87;;
43883;SDS011;71973;52.018;5.810;2024-02-21T09:30:29;3.78;;;1.80;;
43883;SDS011;71973;52.018;5.810;2024-02-21T09:32:55;4.25;;;2.13;;
43883;SDS011;71973;52.018;5.810;2024-02-21T09:35:23;5.68;;;2.05;;
43883;SDS011;71973;52.018;5.810;2024-02-21T09:37:51;5.20;;;1.98;;
43883;SDS011;71973;52.018;5.810;2024-02-21T09:40:17;4.23;;;2.10;;
43883;SDS011;71973;52.018;5.810;2024-02-21T09:42:43;5.20;;;1.97;;
43883;SDS011;71973;52.018;5.810;2024-02-21T09:45:21;5.75;;;2.08;;
43883;SDS011;71973;52.018;5.810;2024-02-21T09:50:23;3.22;;;1.33;;
43883;SDS011;71973;52.018;5.810;2024-02-21T09:52:51;4.85;;;1.83;;
43883;SDS011;71973;52.018;5.810;2024-02-21T09:55:18;3.63;;;1.60;;
43883;SDS011;71973;52.018;5.810;2024-02-21T09:57:44;2.75;;;1.42;;
43883;SDS011;71973;52.018;5.810;2024-02-21T10:00:09;4.30;;;2.00;;
43883;SDS011;71973;52.018;5.810;2024-02-21T10:02:35;6.18;;;1.70;;
43883;SDS011;71973;52.018;5.810;2024-02-21T10:05:02;6.82;;;2.13;;
43883;SDS011;71973;52.018;5.810;2024-02-21T10:07:30;4.20;;;1.67;;
43883;SDS011;71973;52.018;5.810;2024-02-21T10:10:03;2.95;;;1.52;;
43883;SDS011;71973;52.018;5.810;2024-02-21T10:12:29;4.13;;;1.73;;
43883;SDS011;71973;52.018;5.810;2024-02-21T10:17:31;3.42;;;2.00;;
43883;SDS011;71973;52.018;5.810;2024-02-21T10:20:09;5.47;;;2.13;;
43883;SDS011;71973;52.018;5.810;2024-02-21T10:22:37;7.45;;;1.90;;
43883;SDS011;71973;52.018;5.810;2024-02-21T10:25:22;3.67;;;1.55;;
43883;SDS011;71973;52.018;5.810;2024-02-21T10:27:48;3.38;;;1.60;;
43883;SDS011;71973;52.018;5.810;2024-02-21T10:30:14;3.73;;;1.53;;
43883;SDS011;71973;52.018;5.810;2024-02-21T10:32:53;4.32;;;1.73;;
43883;SDS011;71973;52.018;5.810;2024-02-21T10:35:25;3.28;;;1.70;;
43883;SDS011;71973;52.018;5.810;2024-02-21T10:37:55;4.97;;;1.58;;
43883;SDS011;71973;52.018;5.810;2024-02-21T10:40:23;2.70;;;1.40;;
43883;SDS011;71973;52.018;5.810;2024-02-21T10:42:50;2.40;;;1.48;;
43883;SDS011;71973;52.018;5.810;2024-02-21T10:45:29;4.60;;;1.60;;
43883;SDS011;71973;52.018;5.810;2024-02-21T10:48:00;3.10;;;1.70;;
43883;SDS011;71973;52.018;5.810;2024-02-21T10:50:41;4.43;;;1.50;;
43883;SDS011;71973;52.018;5.810;2024-02-21T10:53:20;3.50;;;1.60;;
43883;SDS011;71973;52.018;5.810;2024-02-21T10:56:02;2.97;;;1.10;;
43883;SDS011;71973;52.018;5.810;2024-02-21T10:58:36;3.33;;;1.40;;
43883;SDS011;71973;52.018;5.810;2024-02-21T11:03:29;4.05;;;1.65;;
43883;SDS011;71973;52.018;5.810;2024-02-21T11:05:55;1.98;;;1.25;;
43883;SDS011;71973;52.018;5.810;2024-02-21T11:08:22;3.22;;;1.40;;
43883;SDS011;71973;52.018;5.810;2024-02-21T11:10:49;2.67;;;1.38;;
43883;SDS011;71973;52.018;5.810;2024-02-21T11:13:15;2.00;;;1.40;;
43883;SDS011;71973;52.018;5.810;2024-02-21T11:15:41;1.90;;;1.17;;
43883;SDS011;71973;52.018;5.810;2024-02-21T11:18:06;2.27;;;1.20;;
43883;SDS011;71973;52.018;5.810;2024-02-21T11:20:32;1.97;;;1.23;;
43883;SDS011;71973;52.018;5.810;2024-02-21T11:23:02;2.42;;;1.25;;
43883;SDS011;71973;52.018;5.810;2024-02-21T11:25:28;3.50;;;1.40;;
43883;SDS011;71973;52.018;5.810;2024-02-21T11:27:58;2.38;;;1.30;;
43883;SDS011;71973;52.018;5.810;2024-02-21T11:30:29;4.22;;;1.48;;
43883;SDS011;71973;52.018;5.810;2024-02-21T11:33:02;1.92;;;1.10;;
43883;SDS011;71973;52.018;5.810;2024-02-21T11:35:32;2.20;;;1.23;;
43883;SDS011;71973;52.018;5.810;2024-02-21T11:38:11;2.90;;;1.40;;
43883;SDS011;71973;52.018;5.810;2024-02-21T11:40:41;2.38;;;1.20;;
43883;SDS011;71973;52.018;5.810;2024-02-21T11:43:10;1.83;;;1.20;;
43883;SDS011;71973;52.018;5.810;2024-02-21T11:45:36;3.83;;;1.57;;
43883;SDS011;71973;52.018;5.810;2024-02-21T11:48:01;4.07;;;1.83;;
43883;SDS011;71973;52.018;5.810;2024-02-21T11:50:29;3.17;;;1.80;;
43883;SDS011;71973;52.018;5.810;2024-02-21T11:52:55;3.85;;;1.20;;
43883;SDS011;71973;52.018;5.810;2024-02-21T11:55:22;2.53;;;1.30;;
43883;SDS011;71973;52.018;5.810;2024-02-21T11:57:48;1.60;;;1.25;;
43883;SDS011;71973;52.018;5.810;2024-02-21T12:00:14;2.42;;;1.35;;
43883;SDS011;71973;52.018;5.810;2024-02-21T12:02:41;2.88;;;1.30;;
43883;SDS011;71973;52.018;5.810;2024-02-21T12:05:07;2.45;;;1.40;;
43883;SDS011;71973;52.018;5.810;2024-02-21T12:07:33;2.37;;;1.00;;
43883;SDS011;71973;52.018;5.810;2024-02-21T12:10:01;2.08;;;1.40;;
43883;SDS011;71973;52.018;5.810;2024-02-21T12:12:28;4.00;;;1.50;;
43883;SDS011;71973;52.018;5.810;2024-02-21T12:14:56;2.22;;;1.23;;
43883;SDS011;71973;52.018;5.810;2024-02-21T12:17:25;2.20;;;1.23;;
43883;SDS011;71973;52.018;5.810;2024-02-21T12:19:50;3.60;;;1.67;;
43883;SDS011;71973;52.018;5.810;2024-02-21T12:22:19;1.87;;;1.23;;
43883;SDS011;71973;52.018;5.810;2024-02-21T12:24:44;3.83;;;1.70;;
43883;SDS011;71973;52.018;5.810;2024-02-21T12:27:13;1.50;;;1.20;;
43883;SDS011;71973;52.018;5.810;2024-02-21T12:29:39;2.45;;;1.40;;
43883;SDS011;71973;52.018;5.810;2024-02-21T12:32:04;4.70;;;1.50;;
43883;SDS011;71973;52.018;5.810;2024-02-21T12:34:30;2.72;;;1.35;;
43883;SDS011;71973;52.018;5.810;2024-02-21T12:39:23;2.47;;;1.35;;
43883;SDS011;71973;52.018;5.810;2024-02-21T12:41:49;1.67;;;1.10;;
43883;SDS011;71973;52.018;5.810;2024-02-21T12:44:14;1.83;;;1.23;;
43883;SDS011;71973;52.018;5.810;2024-02-21T12:46:42;3.13;;;1.33;;
43883;SDS011;71973;52.018;5.810;2024-02-21T12:49:07;5.90;;;1.70;;
43883;SDS011;71973;52.018;5.810;2024-02-21T12:51:33;4.03;;;1.40;;
43883;SDS011;71973;52.018;5.810;2024-02-21T12:53:59;3.08;;;1.27;;
43883;SDS011;71973;52.018;5.810;2024-02-21T12:56:25;4.53;;;1.33;;
43883;SDS011;71973;52.018;5.810;2024-02-21T13:01:18;3.63;;;1.10;;
43883;SDS011;71973;52.018;5.810;2024-02-21T13:03:43;2.30;;;1.10;;
43883;SDS011;71973;52.018;5.810;2024-02-21T13:06:09;3.80;;;1.33;;
43883;SDS011;71973;52.018;5.810;2024-02-21T13:08:36;3.80;;;1.60;;
43883;SDS011;71973;52.018;5.810;2024-02-21T13:11:02;5.40;;;1.33;;
43883;SDS011;71973;52.018;5.810;2024-02-21T13:13:29;2.97;;;1.13;;
43883;SDS011;71973;52.018;5.810;2024-02-21T13:15:54;3.00;;;1.47;;
43883;SDS011;71973;52.018;5.810;2024-02-21T13:18:20;3.77;;;1.23;;
43883;SDS011;71973;52.018;5.810;2024-02-21T13:20:45;2.50;;;1.13;;
43883;SDS011;71973;52.018;5.810;2024-02-21T13:23:11;4.97;;;1.73;;
43883;SDS011;71973;52.018;5.810;2024-02-21T13:25:37;3.35;;;1.27;;
43883;SDS011;71973;52.018;5.810;2024-02-21T13:28:03;6.10;;;1.63;;
43883;SDS011;71973;52.018;5.810;2024-02-21T13:30:29;4.87;;;1.67;;
43883;SDS011;71973;52.018;5.810;2024-02-21T13:32:54;2.90;;;1.47;;
43883;SDS011;71973;52.018;5.810;2024-02-21T13:35:20;3.13;;;1.27;;
43883;SDS011;71973;52.018;5.810;2024-02-21T13:37:46;3.07;;;1.40;;
43883;SDS011;71973;52.018;5.810;2024-02-21T13:40:11;3.57;;;1.50;;
43883;SDS011;71973;52.018;5.810;2024-02-21T13:42:39;3.05;;;1.30;;
43883;SDS011;71973;52.018;5.810;2024-02-21T13:45:05;3.53;;;1.38;;
43883;SDS011;71973;52.018;5.810;2024-02-21T13:47:32;3.75;;;1.30;;
43883;SDS011;71973;52.018;5.810;2024-02-21T13:52:24;4.60;;;1.55;;
43883;SDS011;71973;52.018;5.810;2024-02-21T13:54:51;7.00;;;1.75;;
43883;SDS011;71973;52.018;5.810;2024-02-21T13:57:17;3.38;;;1.42;;
43883;SDS011;71973;52.018;5.810;2024-02-21T13:59:43;2.97;;;1.30;;
43883;SDS011;71973;52.018;5.810;2024-02-21T14:02:08;4.83;;;1.60;;
43883;SDS011;71973;52.018;5.810;2024-02-21T14:04:34;2.87;;;1.30;;
43883;SDS011;71973;52.018;5.810;2024-02-21T14:07:00;3.15;;;1.52;;
43883;SDS011;71973;52.018;5.810;2024-02-21T14:09:26;3.50;;;1.58;;
43883;SDS011;71973;52.018;5.810;2024-02-21T14:11:54;3.45;;;1.40;;
43883;SDS011;71973;52.018;5.810;2024-02-21T14:14:20;5.03;;;2.20;;
43883;SDS011;71973;52.018;5.810;2024-02-21T14:16:45;6.00;;;1.67;;
43883;SDS011;71973;52.018;5.810;2024-02-21T14:19:13;6.25;;;1.35;;
43883;SDS011;71973;52.018;5.810;2024-02-21T14:21:38;6.47;;;1.55;;
43883;SDS011;71973;52.018;5.810;2024-02-21T14:24:04;2.67;;;1.20;;
43883;SDS011;71973;52.018;5.810;2024-02-21T14:26:30;6.50;;;1.80;;
43883;SDS011;71973;52.018;5.810;2024-02-21T14:28:56;3.77;;;1.70;;
43883;SDS011;71973;52.018;5.810;2024-02-21T14:31:22;4.50;;;1.23;;
43883;SDS011;71973;52.018;5.810;2024-02-21T14:33:48;4.07;;;1.73;;
43883;SDS011;71973;52.018;5.810;2024-02-21T14:36:14;3.17;;;1.20;;
43883;SDS011;71973;52.018;5.810;2024-02-21T14:38:40;6.38;;;1.73;;
43883;SDS011;71973;52.018;5.810;2024-02-21T14:41:06;4.18;;;1.60;;
43883;SDS011;71973;52.018;5.810;2024-02-21T14:43:32;5.17;;;1.43;;
43883;SDS011;71973;52.018;5.810;2024-02-21T14:45:59;3.15;;;1.70;;
43883;SDS011;71973;52.018;5.810;2024-02-21T14:48:25;3.03;;;1.60;;
43883;SDS011;71973;52.018;5.810;2024-02-21T14:50:53;4.90;;;1.48;;
43883;SDS011;71973;52.018;5.810;2024-02-21T14:53:19;3.10;;;1.30;;
43883;SDS011;71973;52.018;5.810;2024-02-21T14:55:44;5.00;;;1.83;;
43883;SDS011;71973;52.018;5.810;2024-02-21T14:58:10;3.63;;;1.43;;
43883;SDS011;71973;52.018;5.810;2024-02-21T15:00:36;2.57;;;1.03;;
43883;SDS011;71973;52.018;5.810;2024-02-21T15:03:01;2.90;;;1.30;;
43883;SDS011;71973;52.018;5.810;2024-02-21T15:05:27;4.53;;;1.40;;
43883;SDS011;71973;52.018;5.810;2024-02-21T15:07:55;3.72;;;1.20;;